sensor_id;sensor_type;location;lat;lon;timestamp;pressure;altitude;pressure_sealevel;temperature;humidity
64460;BME280;50828;53.756;21.140;2023-05-24T00:02:46;99670.86;;;14.36;55.73
64460;BME280;50828;53.756;21.140;2023-05-24T00:07:54;99665.80;;;14.37;55.80
64460;BME280;50828;53.756;21.140;2023-05-24T00:13:02;99660.88;;;14.40;55.65
64460;BME280;50828;53.756;21.140;2023-05-24T00:18:10;99657.93;;;14.44;55.66
64460;BME280;50828;53.756;21.140;2023-05-24T00:23:18;99658.62;;;14.50;55.64
64460;BME280;50828;53.756;21.140;2023-05-24T00:28:26;99653.02;;;14.57;55.55
64460;BME280;50828;53.756;21.140;2023-05-24T00:33:35;99651.61;;;14.69;55.32
64460;BME280;50828;53.756;21.140;2023-05-24T00:38:43;99652.83;;;14.80;55.19
64460;BME280;50828;53.756;21.140;2023-05-24T00:43:53;99647.90;;;14.90;54.76
64460;BME280;50828;53.756;21.140;2023-05-24T00:49:02;99643.96;;;15.05;54.53
64460;BME280;50828;53.756;21.140;2023-05-24T00:54:10;99648.30;;;15.17;54.35
64460;BME280;50828;53.756;21.140;2023-05-24T00:59:20;99644.61;;;15.24;54.29
64460;BME280;50828;53.756;21.140;2023-05-24T01:04:28;99643.77;;;15.31;54.12
64460;BME280;50828;53.756;21.140;2023-05-24T01:09:49;99646.52;;;15.35;53.97
64460;BME280;50828;53.756;21.140;2023-05-24T01:15:06;99643.89;;;15.37;53.86
64460;BME280;50828;53.756;21.140;2023-05-24T01:20:18;99643.09;;;15.41;53.64
64460;BME280;50828;53.756;21.140;2023-05-24T01:25:44;99640.37;;;15.45;53.35
64460;BME280;50828;53.756;21.140;2023-05-24T01:30:55;99641.92;;;15.48;53.20
64460;BME280;50828;53.756;21.140;2023-05-24T01:36:03;99644.51;;;15.52;53.22
64460;BME280;50828;53.756;21.140;2023-05-24T01:41:18;99647.55;;;15.54;52.88
64460;BME280;50828;53.756;21.140;2023-05-24T01:46:36;99645.47;;;15.56;52.75
64460;BME280;50828;53.756;21.140;2023-05-24T01:51:50;99648.42;;;15.57;52.66
64460;BME280;50828;53.756;21.140;2023-05-24T01:57:06;99653.33;;;15.55;52.69
64460;BME280;50828;53.756;21.140;2023-05-24T02:02:15;99652.47;;;15.50;52.80
64460;BME280;50828;53.756;21.140;2023-05-24T02:07:24;99658.56;;;15.43;52.78
64460;BME280;50828;53.756;21.140;2023-05-24T02:12:32;99656.33;;;15.34;52.75
64460;BME280;50828;53.756;21.140;2023-05-24T02:17:40;99654.42;;;15.23;52.83
64460;BME280;50828;53.756;21.140;2023-05-24T02:22:48;99649.25;;;15.10;52.76
64460;BME280;50828;53.756;21.140;2023-05-24T02:27:56;99650.67;;;14.99;52.95
64460;BME280;50828;53.756;21.140;2023-05-24T02:33:04;99651.14;;;14.90;53.11
64460;BME280;50828;53.756;21.140;2023-05-24T02:38:13;99654.00;;;14.81;53.42
64460;BME280;50828;53.756;21.140;2023-05-24T02:43:22;99653.66;;;14.75;53.44
64460;BME280;50828;53.756;21.140;2023-05-24T02:48:30;99655.02;;;14.71;53.55
64460;BME280;50828;53.756;21.140;2023-05-24T02:53:39;99656.17;;;14.69;53.56
64460;BME280;50828;53.756;21.140;2023-05-24T02:58:48;99658.89;;;14.71;53.67
64460;BME280;50828;53.756;21.140;2023-05-24T03:03:55;99662.48;;;14.76;53.82
64460;BME280;50828;53.756;21.140;2023-05-24T03:09:03;99661.93;;;14.82;53.86
64460;BME280;50828;53.756;21.140;2023-05-24T03:14:11;99662.67;;;14.86;53.84
64460;BME280;50828;53.756;21.140;2023-05-24T03:19:19;99667.41;;;14.93;53.78
64460;BME280;50828;53.756;21.140;2023-05-24T03:24:27;99671.08;;;14.99;53.82
64460;BME280;50828;53.756;21.140;2023-05-24T03:29:35;99671.62;;;15.05;53.65
64460;BME280;50828;53.756;21.140;2023-05-24T03:34:42;99676.02;;;15.11;53.82
64460;BME280;50828;53.756;21.140;2023-05-24T03:39:51;99680.42;;;15.16;53.92
64460;BME280;50828;53.756;21.140;2023-05-24T03:45:31;99681.78;;;15.25;53.85
64460;BME280;50828;53.756;21.140;2023-05-24T03:50:44;99684.48;;;15.35;53.75
64460;BME280;50828;53.756;21.140;2023-05-24T03:55:53;99683.85;;;15.45;53.60
64460;BME280;50828;53.756;21.140;2023-05-24T04:01:00;99686.99;;;15.53;53.53
64460;BME280;50828;53.756;21.140;2023-05-24T04:06:08;99689.17;;;15.61;53.22
64460;BME280;50828;53.756;21.140;2023-05-24T04:11:16;99687.98;;;15.68;53.27
64460;BME280;50828;53.756;21.140;2023-05-24T04:16:24;99694.11;;;15.74;53.23
64460;BME280;50828;53.756;21.140;2023-05-24T04:21:35;99701.10;;;15.82;53.14
64460;BME280;50828;53.756;21.140;2023-05-24T04:26:43;99703.02;;;15.90;53.28
64460;BME280;50828;53.756;21.140;2023-05-24T04:31:52;99710.71;;;15.99;53.31
64460;BME280;50828;53.756;21.140;2023-05-24T04:37:02;99718.60;;;16.09;53.31
64460;BME280;50828;53.756;21.140;2023-05-24T04:42:10;99723.80;;;16.18;53.06
64460;BME280;50828;53.756;21.140;2023-05-24T04:47:18;99728.11;;;16.28;52.93
64460;BME280;50828;53.756;21.140;2023-05-24T04:52:26;99731.38;;;16.37;53.01
64460;BME280;50828;53.756;21.140;2023-05-24T04:57:33;99734.13;;;16.46;52.69
64460;BME280;50828;53.756;21.140;2023-05-24T05:02:41;99729.08;;;16.55;52.72
64460;BME280;50828;53.756;21.140;2023-05-24T05:07:49;99732.95;;;16.65;52.81
64460;BME280;50828;53.756;21.140;2023-05-24T05:12:56;99735.73;;;16.74;52.52
64460;BME280;50828;53.756;21.140;2023-05-24T05:18:04;99742.42;;;16.82;52.26
64460;BME280;50828;53.756;21.140;2023-05-24T05:23:11;99742.63;;;16.92;52.38
64460;BME280;50828;53.756;21.140;2023-05-24T05:28:19;99741.47;;;17.03;52.25
64460;BME280;50828;53.756;21.140;2023-05-24T05:33:27;99747.88;;;17.15;52.16
64460;BME280;50828;53.756;21.140;2023-05-24T05:38:34;99752.99;;;17.28;52.02
64460;BME280;50828;53.756;21.140;2023-05-24T05:43:42;99757.21;;;17.38;51.96
64460;BME280;50828;53.756;21.140;2023-05-24T05:48:50;99761.71;;;17.50;52.08
64460;BME280;50828;53.756;21.140;2023-05-24T05:53:57;99766.45;;;17.60;51.96
64460;BME280;50828;53.756;21.140;2023-05-24T05:59:05;99769.81;;;17.72;52.14
64460;BME280;50828;53.756;21.140;2023-05-24T06:04:12;99773.64;;;17.83;51.81
64460;BME280;50828;53.756;21.140;2023-05-24T06:09:20;99782.23;;;17.94;51.96
64460;BME280;50828;53.756;21.140;2023-05-24T06:14:28;99787.58;;;18.06;51.91
64460;BME280;50828;53.756;21.140;2023-05-24T06:19:36;99789.65;;;18.16;51.78
64460;BME280;50828;53.756;21.140;2023-05-24T06:24:43;99793.82;;;18.27;51.53
64460;BME280;50828;53.756;21.140;2023-05-24T06:29:51;99802.27;;;18.40;51.55
64460;BME280;50828;53.756;21.140;2023-05-24T06:34:59;99805.98;;;18.52;51.33
64460;BME280;50828;53.756;21.140;2023-05-24T06:40:08;99814.20;;;18.65;51.31
64460;BME280;50828;53.756;21.140;2023-05-24T06:45:16;99819.89;;;18.77;50.99
64460;BME280;50828;53.756;21.140;2023-05-24T06:50:24;99825.05;;;18.91;50.66
64460;BME280;50828;53.756;21.140;2023-05-24T06:55:32;99829.14;;;19.04;50.57
64460;BME280;50828;53.756;21.140;2023-05-24T07:00:40;99830.02;;;19.18;50.35
64460;BME280;50828;53.756;21.140;2023-05-24T07:05:51;99833.02;;;19.32;49.83
64460;BME280;50828;53.756;21.140;2023-05-24T07:10:59;99834.83;;;19.47;49.87
64460;BME280;50828;53.756;21.140;2023-05-24T07:16:07;99835.95;;;19.64;49.59
64460;BME280;50828;53.756;21.140;2023-05-24T07:21:16;99837.45;;;19.81;49.28
64460;BME280;50828;53.756;21.140;2023-05-24T07:26:24;99843.04;;;19.97;49.01
64460;BME280;50828;53.756;21.140;2023-05-24T07:31:31;99845.80;;;20.15;48.75
64460;BME280;50828;53.756;21.140;2023-05-24T07:36:40;99848.91;;;20.36;48.55
64460;BME280;50828;53.756;21.140;2023-05-24T07:41:47;99853.21;;;20.59;48.32
64460;BME280;50828;53.756;21.140;2023-05-24T07:46:56;99855.19;;;20.88;48.11
64460;BME280;50828;53.756;21.140;2023-05-24T07:52:04;99858.21;;;21.23;48.08
64460;BME280;50828;53.756;21.140;2023-05-24T07:57:11;99860.30;;;21.62;47.65
64460;BME280;50828;53.756;21.140;2023-05-24T08:08:32;99864.45;;;22.34;46.30
64460;BME280;50828;53.756;21.140;2023-05-24T08:13:40;99868.00;;;22.63;45.52
64460;BME280;50828;53.756;21.140;2023-05-24T08:18:48;99875.45;;;22.85;44.88
64460;BME280;50828;53.756;21.140;2023-05-24T08:23:57;99874.91;;;23.04;44.23
64460;BME280;50828;53.756;21.140;2023-05-24T08:29:05;99874.56;;;23.21;43.92
64460;BME280;50828;53.756;21.140;2023-05-24T08:34:13;99877.41;;;23.42;43.83
64460;BME280;50828;53.756;21.140;2023-05-24T08:39:20;99878.33;;;23.60;43.27
64460;BME280;50828;53.756;21.140;2023-05-24T08:44:29;99878.45;;;23.75;42.65
64460;BME280;50828;53.756;21.140;2023-05-24T08:49:40;99879.67;;;23.88;42.19
64460;BME280;50828;53.756;21.140;2023-05-24T08:54:50;99884.08;;;24.02;41.80
64460;BME280;50828;53.756;21.140;2023-05-24T08:59:58;99878.56;;;24.12;41.19
64460;BME280;50828;53.756;21.140;2023-05-24T09:05:07;99886.24;;;24.22;40.77
64460;BME280;50828;53.756;21.140;2023-05-24T09:10:17;99888.11;;;24.30;39.82
64460;BME280;50828;53.756;21.140;2023-05-24T09:15:26;99883.48;;;24.34;38.91
64460;BME280;50828;53.756;21.140;2023-05-24T09:20:33;99886.72;;;24.38;38.52
64460;BME280;50828;53.756;21.140;2023-05-24T09:25:44;99885.95;;;24.44;38.36
64460;BME280;50828;53.756;21.140;2023-05-24T09:31:01;99887.45;;;24.52;38.06
64460;BME280;50828;53.756;21.140;2023-05-24T09:36:17;99886.25;;;24.62;37.53
64460;BME280;50828;53.756;21.140;2023-05-24T09:41:25;99894.62;;;24.72;37.41
64460;BME280;50828;53.756;21.140;2023-05-24T09:46:37;99895.22;;;24.81;37.03
64460;BME280;50828;53.756;21.140;2023-05-24T09:57:41;99902.47;;;24.97;35.68
64460;BME280;50828;53.756;21.140;2023-05-24T10:03:01;99901.20;;;25.04;35.20
64460;BME280;50828;53.756;21.140;2023-05-24T10:08:10;99902.27;;;25.09;35.02
64460;BME280;50828;53.756;21.140;2023-05-24T10:13:19;99903.04;;;25.13;34.41
64460;BME280;50828;53.756;21.140;2023-05-24T10:18:29;99901.64;;;25.12;33.97
64460;BME280;50828;53.756;21.140;2023-05-24T10:23:39;99905.23;;;25.08;33.77
64460;BME280;50828;53.756;21.140;2023-05-24T10:28:53;99911.23;;;25.06;33.62
64460;BME280;50828;53.756;21.140;2023-05-24T10:34:03;99915.13;;;25.02;33.31
64460;BME280;50828;53.756;21.140;2023-05-24T10:39:15;99915.30;;;24.97;33.28
64460;BME280;50828;53.756;21.140;2023-05-24T10:44:30;99916.23;;;24.91;32.72
64460;BME280;50828;53.756;21.140;2023-05-24T10:49:46;99920.84;;;24.87;32.70
64460;BME280;50828;53.756;21.140;2023-05-24T10:55:06;99921.02;;;24.83;32.75
64460;BME280;50828;53.756;21.140;2023-05-24T11:00:31;99925.14;;;24.82;32.93
64460;BME280;50828;53.756;21.140;2023-05-24T11:05:52;99923.90;;;24.80;33.49
64460;BME280;50828;53.756;21.140;2023-05-24T11:11:10;99925.71;;;24.78;33.70
64460;BME280;50828;53.756;21.140;2023-05-24T11:16:35;99923.23;;;24.80;34.00
64460;BME280;50828;53.756;21.140;2023-05-24T11:21:45;99928.27;;;24.85;34.25
64460;BME280;50828;53.756;21.140;2023-05-24T11:26:53;99930.15;;;24.94;34.23
64460;BME280;50828;53.756;21.140;2023-05-24T11:32:02;99924.97;;;25.03;33.67
64460;BME280;50828;53.756;21.140;2023-05-24T11:37:11;99922.16;;;25.10;33.47
64460;BME280;50828;53.756;21.140;2023-05-24T11:42:22;99922.61;;;25.18;33.13
64460;BME280;50828;53.756;21.140;2023-05-24T11:47:30;99921.63;;;25.26;33.25
64460;BME280;50828;53.756;21.140;2023-05-24T11:52:42;99922.48;;;25.34;32.74
64460;BME280;50828;53.756;21.140;2023-05-24T11:57:55;99922.18;;;25.40;32.49
64460;BME280;50828;53.756;21.140;2023-05-24T12:03:04;99922.46;;;25.44;32.38
64460;BME280;50828;53.756;21.140;2023-05-24T12:08:14;99921.60;;;25.49;32.25
64460;BME280;50828;53.756;21.140;2023-05-24T12:13:24;99919.61;;;25.51;32.03
64460;BME280;50828;53.756;21.140;2023-05-24T12:18:32;99923.20;;;25.53;31.91
64460;BME280;50828;53.756;21.140;2023-05-24T12:23:40;99916.61;;;25.54;31.80
64460;BME280;50828;53.756;21.140;2023-05-24T12:28:53;99913.45;;;25.58;31.89
64460;BME280;50828;53.756;21.140;2023-05-24T12:34:01;99909.05;;;25.64;31.34
64460;BME280;50828;53.756;21.140;2023-05-24T12:39:24;99904.91;;;25.69;31.32
64460;BME280;50828;53.756;21.140;2023-05-24T12:44:38;99914.15;;;25.73;31.01
64460;BME280;50828;53.756;21.140;2023-05-24T12:49:47;99912.56;;;25.73;30.94
64460;BME280;50828;53.756;21.140;2023-05-24T12:54:55;99907.41;;;25.72;30.67
64460;BME280;50828;53.756;21.140;2023-05-24T13:00:03;99909.67;;;25.70;30.65
64460;BME280;50828;53.756;21.140;2023-05-24T13:05:12;99910.52;;;25.68;30.75
64460;BME280;50828;53.756;21.140;2023-05-24T13:10:20;99908.85;;;25.65;30.47
64460;BME280;50828;53.756;21.140;2023-05-24T13:15:28;99910.48;;;25.60;30.47
64460;BME280;50828;53.756;21.140;2023-05-24T13:20:36;99914.11;;;25.55;30.54
64460;BME280;50828;53.756;21.140;2023-05-24T13:25:45;99909.20;;;25.50;30.64
64460;BME280;50828;53.756;21.140;2023-05-24T13:30:53;99911.73;;;25.50;30.67
64460;BME280;50828;53.756;21.140;2023-05-24T13:36:00;99912.39;;;25.51;30.44
64460;BME280;50828;53.756;21.140;2023-05-24T13:41:08;99911.16;;;25.51;30.48
64460;BME280;50828;53.756;21.140;2023-05-24T13:46:16;99909.44;;;25.50;30.58
64460;BME280;50828;53.756;21.140;2023-05-24T13:51:25;99910.92;;;25.49;30.64
64460;BME280;50828;53.756;21.140;2023-05-24T13:56:32;99905.83;;;25.43;30.68
64460;BME280;50828;53.756;21.140;2023-05-24T14:01:41;99910.24;;;25.39;30.74
64460;BME280;50828;53.756;21.140;2023-05-24T14:06:50;99913.40;;;25.33;30.71
64460;BME280;50828;53.756;21.140;2023-05-24T14:11:58;99917.87;;;25.29;30.92
64460;BME280;50828;53.756;21.140;2023-05-24T14:17:07;99918.58;;;25.26;30.86
64460;BME280;50828;53.756;21.140;2023-05-24T14:22:17;99914.73;;;25.20;30.89
64460;BME280;50828;53.756;21.140;2023-05-24T14:27:25;99914.33;;;25.18;31.01
64460;BME280;50828;53.756;21.140;2023-05-24T14:32:33;99910.79;;;25.14;31.25
64460;BME280;50828;53.756;21.140;2023-05-24T14:37:41;99912.37;;;25.11;31.39
64460;BME280;50828;53.756;21.140;2023-05-24T14:42:49;99917.77;;;25.08;31.37
64460;BME280;50828;53.756;21.140;2023-05-24T14:47:57;99918.45;;;25.05;31.38
64460;BME280;50828;53.756;21.140;2023-05-24T14:53:06;99917.48;;;25.00;31.23
64460;BME280;50828;53.756;21.140;2023-05-24T14:58:17;99913.45;;;24.98;31.31
64460;BME280;50828;53.756;21.140;2023-05-24T15:03:26;99916.95;;;24.95;31.52
64460;BME280;50828;53.756;21.140;2023-05-24T15:08:34;99920.08;;;24.93;31.87
64460;BME280;50828;53.756;21.140;2023-05-24T15:13:43;99926.50;;;24.93;32.06
64460;BME280;50828;53.756;21.140;2023-05-24T15:18:52;99923.63;;;24.93;31.84
64460;BME280;50828;53.756;21.140;2023-05-24T15:24:01;99920.20;;;24.91;31.91
64460;BME280;50828;53.756;21.140;2023-05-24T15:29:09;99925.51;;;24.92;31.95
64460;BME280;50828;53.756;21.140;2023-05-24T15:34:17;99924.32;;;24.91;32.08
64460;BME280;50828;53.756;21.140;2023-05-24T15:39:26;99925.95;;;24.91;31.99
64460;BME280;50828;53.756;21.140;2023-05-24T15:44:34;99925.83;;;24.91;31.71
64460;BME280;50828;53.756;21.140;2023-05-24T15:49:43;99920.98;;;24.87;31.51
64460;BME280;50828;53.756;21.140;2023-05-24T15:54:52;99926.72;;;24.87;31.46
64460;BME280;50828;53.756;21.140;2023-05-24T16:00:01;99926.14;;;24.86;31.51
64460;BME280;50828;53.756;21.140;2023-05-24T16:05:16;99924.41;;;24.84;31.36
64460;BME280;50828;53.756;21.140;2023-05-24T16:10:26;99926.27;;;24.81;31.42
64460;BME280;50828;53.756;21.140;2023-05-24T16:15:34;99929.99;;;24.77;31.50
64460;BME280;50828;53.756;21.140;2023-05-24T16:20:47;99931.45;;;24.75;31.51
64460;BME280;50828;53.756;21.140;2023-05-24T16:25:56;99934.55;;;24.71;31.55
64460;BME280;50828;53.756;21.140;2023-05-24T16:31:04;99940.52;;;24.67;31.65
64460;BME280;50828;53.756;21.140;2023-05-24T16:36:12;99944.64;;;24.64;31.75
64460;BME280;50828;53.756;21.140;2023-05-24T16:41:22;99946.48;;;24.58;31.84
64460;BME280;50828;53.756;21.140;2023-05-24T16:46:31;99952.26;;;24.56;32.13
64460;BME280;50828;53.756;21.140;2023-05-24T16:51:40;99950.80;;;24.51;32.42
64460;BME280;50828;53.756;21.140;2023-05-24T16:56:49;99953.42;;;24.46;32.53
64460;BME280;50828;53.756;21.140;2023-05-24T17:01:59;99961.14;;;24.41;32.69
64460;BME280;50828;53.756;21.140;2023-05-24T17:07:08;99959.80;;;24.34;32.71
64460;BME280;50828;53.756;21.140;2023-05-24T17:12:17;99963.82;;;24.28;32.77
64460;BME280;50828;53.756;21.140;2023-05-24T17:17:26;99966.20;;;24.23;33.11
64460;BME280;50828;53.756;21.140;2023-05-24T17:22:33;99964.50;;;24.14;33.36
64460;BME280;50828;53.756;21.140;2023-05-24T17:27:42;99969.02;;;24.09;33.38
64460;BME280;50828;53.756;21.140;2023-05-24T17:32:50;99972.61;;;24.03;33.56
64460;BME280;50828;53.756;21.140;2023-05-24T17:37:59;99979.13;;;23.97;33.72
64460;BME280;50828;53.756;21.140;2023-05-24T17:43:07;99974.96;;;23.86;33.86
64460;BME280;50828;53.756;21.140;2023-05-24T17:48:15;99988.10;;;23.85;34.01
64460;BME280;50828;53.756;21.140;2023-05-24T17:53:22;99987.36;;;23.77;34.17
64460;BME280;50828;53.756;21.140;2023-05-24T17:58:37;99990.44;;;23.70;34.45
64460;BME280;50828;53.756;21.140;2023-05-24T18:03:46;99998.70;;;23.62;34.56
64460;BME280;50828;53.756;21.140;2023-05-24T18:08:54;100000.20;;;23.54;34.72
64460;BME280;50828;53.756;21.140;2023-05-24T18:14:03;100005.31;;;23.46;35.08
64460;BME280;50828;53.756;21.140;2023-05-24T18:19:11;100006.95;;;23.36;35.03
64460;BME280;50828;53.756;21.140;2023-05-24T18:24:19;100013.66;;;23.28;35.25
64460;BME280;50828;53.756;21.140;2023-05-24T18:29:28;100017.23;;;23.19;35.50
64460;BME280;50828;53.756;21.140;2023-05-24T18:34:37;100020.33;;;23.10;35.82
64460;BME280;50828;53.756;21.140;2023-05-24T18:39:45;100027.05;;;23.02;35.92
64460;BME280;50828;53.756;21.140;2023-05-24T18:44:53;100034.84;;;22.93;36.07
64460;BME280;50828;53.756;21.140;2023-05-24T18:50:02;100043.46;;;22.83;36.27
64460;BME280;50828;53.756;21.140;2023-05-24T18:55:11;100051.55;;;22.74;36.37
64460;BME280;50828;53.756;21.140;2023-05-24T19:00:19;100054.30;;;22.65;36.46
64460;BME280;50828;53.756;21.140;2023-05-24T19:05:28;100061.45;;;22.58;36.58
64460;BME280;50828;53.756;21.140;2023-05-24T19:10:36;100063.98;;;22.49;36.80
64460;BME280;50828;53.756;21.140;2023-05-24T19:15:44;100069.92;;;22.41;37.43
64460;BME280;50828;53.756;21.140;2023-05-24T19:20:52;100068.99;;;22.34;38.07
64460;BME280;50828;53.756;21.140;2023-05-24T19:25:59;100069.84;;;22.26;39.12
64460;BME280;50828;53.756;21.140;2023-05-24T19:31:08;100068.34;;;22.17;39.74
64460;BME280;50828;53.756;21.140;2023-05-24T19:36:17;100068.79;;;22.05;40.41
64460;BME280;50828;53.756;21.140;2023-05-24T19:41:26;100072.98;;;21.97;40.87
64460;BME280;50828;53.756;21.140;2023-05-24T19:46:33;100076.77;;;21.87;41.18
64460;BME280;50828;53.756;21.140;2023-05-24T19:51:42;100065.16;;;21.67;40.65
64460;BME280;50828;53.756;21.140;2023-05-24T19:56:50;100080.79;;;21.69;40.06
64460;BME280;50828;53.756;21.140;2023-05-24T20:02:00;100078.97;;;21.61;39.74
64460;BME280;50828;53.756;21.140;2023-05-24T20:07:08;100081.09;;;21.55;39.96
64460;BME280;50828;53.756;21.140;2023-05-24T20:12:16;100080.52;;;21.50;41.11
64460;BME280;50828;53.756;21.140;2023-05-24T20:17:24;100079.23;;;21.43;41.73
64460;BME280;50828;53.756;21.140;2023-05-24T20:22:32;100080.16;;;21.34;42.09
64460;BME280;50828;53.756;21.140;2023-05-24T20:27:41;100086.33;;;21.25;42.82
64460;BME280;50828;53.756;21.140;2023-05-24T20:32:50;100084.91;;;21.12;43.08
64460;BME280;50828;53.756;21.140;2023-05-24T20:37:58;100084.23;;;21.01;43.40
64460;BME280;50828;53.756;21.140;2023-05-24T20:43:07;100083.69;;;20.86;43.55
64460;BME280;50828;53.756;21.140;2023-05-24T20:48:15;100090.13;;;20.78;43.56
64460;BME280;50828;53.756;21.140;2023-05-24T20:53:23;100093.26;;;20.70;44.03
64460;BME280;50828;53.756;21.140;2023-05-24T20:58:32;100089.14;;;20.61;44.65
64460;BME280;50828;53.756;21.140;2023-05-24T21:03:41;100084.76;;;20.49;45.07
64460;BME280;50828;53.756;21.140;2023-05-24T21:08:49;100087.19;;;20.39;44.79
64460;BME280;50828;53.756;21.140;2023-05-24T21:13:58;100090.40;;;20.30;44.86
64460;BME280;50828;53.756;21.140;2023-05-24T21:19:07;100089.98;;;20.20;45.06
64460;BME280;50828;53.756;21.140;2023-05-24T21:24:15;100092.22;;;20.12;45.74
64460;BME280;50828;53.756;21.140;2023-05-24T21:29:24;100093.03;;;20.02;46.46
64460;BME280;50828;53.756;21.140;2023-05-24T21:34:33;100096.02;;;19.91;46.62
64460;BME280;50828;53.756;21.140;2023-05-24T21:39:42;100098.73;;;19.80;47.06
64460;BME280;50828;53.756;21.140;2023-05-24T21:44:51;100107.30;;;19.71;47.26
64460;BME280;50828;53.756;21.140;2023-05-24T21:49:59;100100.40;;;19.58;47.87
64460;BME280;50828;53.756;21.140;2023-05-24T21:55:09;100105.45;;;19.50;48.22
64460;BME280;50828;53.756;21.140;2023-05-24T22:00:18;100111.92;;;19.41;48.61
64460;BME280;50828;53.756;21.140;2023-05-24T22:05:27;100109.55;;;19.30;48.93
64460;BME280;50828;53.756;21.140;2023-05-24T22:10:36;100111.73;;;19.22;49.17
64460;BME280;50828;53.756;21.140;2023-05-24T22:15:44;100113.79;;;19.14;49.52
64460;BME280;50828;53.756;21.140;2023-05-24T22:20:53;100115.50;;;19.05;50.03
64460;BME280;50828;53.756;21.140;2023-05-24T22:26:04;100115.63;;;18.97;50.22
64460;BME280;50828;53.756;21.140;2023-05-24T22:31:13;100122.77;;;18.89;50.47
64460;BME280;50828;53.756;21.140;2023-05-24T22:36:22;100117.54;;;18.78;50.66
64460;BME280;50828;53.756;21.140;2023-05-24T22:41:31;100125.48;;;18.74;50.82
64460;BME280;50828;53.756;21.140;2023-05-24T22:46:40;100122.61;;;18.67;51.16
64460;BME280;50828;53.756;21.140;2023-05-24T22:51:49;100116.43;;;18.59;51.39
64460;BME280;50828;53.756;21.140;2023-05-24T22:56:59;100111.00;;;18.50;51.32
64460;BME280;50828;53.756;21.140;2023-05-24T23:02:07;100108.94;;;18.42;51.53
64460;BME280;50828;53.756;21.140;2023-05-24T23:07:16;100112.35;;;18.37;51.89
64460;BME280;50828;53.756;21.140;2023-05-24T23:12:27;100106.42;;;18.29;52.32
64460;BME280;50828;53.756;21.140;2023-05-24T23:17:36;100102.90;;;18.22;52.18
64460;BME280;50828;53.756;21.140;2023-05-24T23:22:45;100100.89;;;18.15;52.41
64460;BME280;50828;53.756;21.140;2023-05-24T23:27:53;100099.99;;;18.10;52.19
64460;BME280;50828;53.756;21.140;2023-05-24T23:33:02;100099.92;;;18.01;52.31
64460;BME280;50828;53.756;21.140;2023-05-24T23:38:11;100103.48;;;17.96;52.30
64460;BME280;50828;53.756;21.140;2023-05-24T23:43:21;100106.63;;;17.89;52.67
64460;BME280;50828;53.756;21.140;2023-05-24T23:48:29;100107.42;;;17.83;52.82
64460;BME280;50828;53.756;21.140;2023-05-24T23:53:37;100113.77;;;17.79;52.72
64460;BME280;50828;53.756;21.140;2023-05-24T23:58:46;100118.29;;;17.75;52.75
